sensor_id;sensor_type;location;lat;lon;timestamp;pressure;altitude;pressure_sealevel;temperature;humidity
40171;BME280;37650;52.790;18.268;2023-05-11T00:01:41;100903.09;;;9.56;53.53
40171;BME280;37650;52.790;18.268;2023-05-11T00:05:03;100899.52;;;9.51;53.67
40171;BME280;37650;52.790;18.268;2023-05-11T00:08:24;100898.05;;;9.47;53.87
40171;BME280;37650;52.790;18.268;2023-05-11T00:11:45;100900.98;;;9.42;54.00
40171;BME280;37650;52.790;18.268;2023-05-11T00:15:07;100898.13;;;9.37;54.15
40171;BME280;37650;52.790;18.268;2023-05-11T00:18:28;100897.86;;;9.33;54.30
40171;BME280;37650;52.790;18.268;2023-05-11T00:21:50;100899.44;;;9.26;54.46
40171;BME280;37650;52.790;18.268;2023-05-11T00:25:11;100897.45;;;9.21;54.69
40171;BME280;37650;52.790;18.268;2023-05-11T00:28:32;100896.66;;;9.17;54.76
40171;BME280;37650;52.790;18.268;2023-05-11T00:31:54;100893.77;;;9.14;54.96
40171;BME280;37650;52.790;18.268;2023-05-11T00:35:16;100894.08;;;9.08;55.24
40171;BME280;37650;52.790;18.268;2023-05-11T00:38:37;100895.90;;;9.04;55.29
40171;BME280;37650;52.790;18.268;2023-05-11T00:42:01;100901.41;;;9.01;55.51
40171;BME280;37650;52.790;18.268;2023-05-11T00:45:23;100900.65;;;8.96;55.66
40171;BME280;37650;52.790;18.268;2023-05-11T00:48:45;100898.13;;;8.91;55.72
40171;BME280;37650;52.790;18.268;2023-05-11T00:52:07;100898.08;;;8.85;55.84
40171;BME280;37650;52.790;18.268;2023-05-11T00:55:29;100897.80;;;8.81;55.98
40171;BME280;37650;52.790;18.268;2023-05-11T00:58:51;100897.93;;;8.76;56.07
40171;BME280;37650;52.790;18.268;2023-05-11T01:02:12;100896.84;;;8.69;56.38
40171;BME280;37650;52.790;18.268;2023-05-11T01:05:51;100899.54;;;8.66;56.59
40171;BME280;37650;52.790;18.268;2023-05-11T01:13:14;100897.79;;;8.57;57.00
40171;BME280;37650;52.790;18.268;2023-05-11T01:16:39;100898.92;;;8.54;57.32
40171;BME280;37650;52.790;18.268;2023-05-11T01:20:11;100896.50;;;8.53;57.36
40171;BME280;37650;52.790;18.268;2023-05-11T01:31:29;100893.45;;;8.47;57.63
40171;BME280;37650;52.790;18.268;2023-05-11T01:34:59;100895.97;;;8.44;57.66
40171;BME280;37650;52.790;18.268;2023-05-11T01:38:23;100894.63;;;8.41;57.86
40171;BME280;37650;52.790;18.268;2023-05-11T01:41:50;100892.78;;;8.38;58.12
40171;BME280;37650;52.790;18.268;2023-05-11T01:45:14;100901.91;;;8.35;58.23
40171;BME280;37650;52.790;18.268;2023-05-11T01:48:38;100898.11;;;8.33;58.23
40171;BME280;37650;52.790;18.268;2023-05-11T01:52:04;100901.64;;;8.31;58.22
40171;BME280;37650;52.790;18.268;2023-05-11T01:55:26;100898.55;;;8.27;58.37
40171;BME280;37650;52.790;18.268;2023-05-11T01:58:49;100902.14;;;8.22;58.38
40171;BME280;37650;52.790;18.268;2023-05-11T02:02:12;100901.89;;;8.17;58.64
40171;BME280;37650;52.790;18.268;2023-05-11T02:05:34;100906.89;;;8.12;58.75
40171;BME280;37650;52.790;18.268;2023-05-11T02:08:57;100907.83;;;8.08;59.01
40171;BME280;37650;52.790;18.268;2023-05-11T02:12:21;100909.00;;;8.01;59.00
40171;BME280;37650;52.790;18.268;2023-05-11T02:15:44;100909.05;;;7.98;59.36
40171;BME280;37650;52.790;18.268;2023-05-11T02:19:06;100907.89;;;7.95;59.45
40171;BME280;37650;52.790;18.268;2023-05-11T02:22:29;100908.31;;;7.91;59.54
40171;BME280;37650;52.790;18.268;2023-05-11T02:25:51;100911.37;;;7.86;59.66
40171;BME280;37650;52.790;18.268;2023-05-11T02:29:13;100911.83;;;7.80;59.87
40171;BME280;37650;52.790;18.268;2023-05-11T02:32:38;100910.63;;;7.78;59.89
40171;BME280;37650;52.790;18.268;2023-05-11T02:36:04;100911.02;;;7.75;60.05
40171;BME280;37650;52.790;18.268;2023-05-11T02:39:32;100910.40;;;7.71;60.07
40171;BME280;37650;52.790;18.268;2023-05-11T02:42:59;100910.46;;;7.68;60.23
40171;BME280;37650;52.790;18.268;2023-05-11T02:46:25;100912.05;;;7.67;60.38
40171;BME280;37650;52.790;18.268;2023-05-11T02:49:49;100914.55;;;7.63;60.37
40171;BME280;37650;52.790;18.268;2023-05-11T02:53:15;100914.77;;;7.61;60.50
40171;BME280;37650;52.790;18.268;2023-05-11T02:56:38;100921.13;;;7.56;60.71
40171;BME280;37650;52.790;18.268;2023-05-11T03:00:02;100921.00;;;7.53;60.89
40171;BME280;37650;52.790;18.268;2023-05-11T03:03:23;100921.41;;;7.49;61.04
40171;BME280;37650;52.790;18.268;2023-05-11T03:06:44;100923.92;;;7.44;61.25
40171;BME280;37650;52.790;18.268;2023-05-11T03:10:06;100923.28;;;7.42;61.21
40171;BME280;37650;52.790;18.268;2023-05-11T03:13:34;100928.36;;;7.41;61.40
40171;BME280;37650;52.790;18.268;2023-05-11T03:16:58;100925.92;;;7.40;61.66
40171;BME280;37650;52.790;18.268;2023-05-11T03:20:21;100932.73;;;7.39;61.66
40171;BME280;37650;52.790;18.268;2023-05-11T03:23:44;100934.13;;;7.40;61.69
40171;BME280;37650;52.790;18.268;2023-05-11T03:27:05;100937.96;;;7.40;61.83
40171;BME280;37650;52.790;18.268;2023-05-11T03:30:28;100939.16;;;7.42;61.97
40171;BME280;37650;52.790;18.268;2023-05-11T03:33:50;100939.11;;;7.44;61.83
40171;BME280;37650;52.790;18.268;2023-05-11T03:37:12;100941.55;;;7.46;61.87
40171;BME280;37650;52.790;18.268;2023-05-11T03:40:36;100941.00;;;7.47;61.96
40171;BME280;37650;52.790;18.268;2023-05-11T03:44:04;100942.70;;;7.49;61.92
40171;BME280;37650;52.790;18.268;2023-05-11T03:47:28;100944.94;;;7.52;62.19
40171;BME280;37650;52.790;18.268;2023-05-11T03:50:52;100945.23;;;7.55;62.15
40171;BME280;37650;52.790;18.268;2023-05-11T03:54:13;100944.94;;;7.62;62.08
40171;BME280;37650;52.790;18.268;2023-05-11T03:57:35;100950.27;;;7.68;61.81
40171;BME280;37650;52.790;18.268;2023-05-11T04:00:57;100954.52;;;7.74;61.81
40171;BME280;37650;52.790;18.268;2023-05-11T04:04:20;100954.79;;;7.80;61.92
40171;BME280;37650;52.790;18.268;2023-05-11T04:07:41;100948.34;;;7.89;61.78
40171;BME280;37650;52.790;18.268;2023-05-11T04:11:02;100949.82;;;7.95;61.66
40171;BME280;37650;52.790;18.268;2023-05-11T04:14:24;100947.24;;;8.01;61.59
40171;BME280;37650;52.790;18.268;2023-05-11T04:17:45;100952.15;;;8.11;61.56
40171;BME280;37650;52.790;18.268;2023-05-11T04:21:06;100953.00;;;8.22;61.45
40171;BME280;37650;52.790;18.268;2023-05-11T04:24:28;100954.24;;;8.31;61.19
40171;BME280;37650;52.790;18.268;2023-05-11T04:27:51;100952.05;;;8.37;61.19
40171;BME280;37650;52.790;18.268;2023-05-11T04:31:12;100956.41;;;8.47;60.99
40171;BME280;37650;52.790;18.268;2023-05-11T04:34:33;100961.66;;;8.56;60.83
40171;BME280;37650;52.790;18.268;2023-05-11T04:37:56;100961.94;;;8.59;60.73
40171;BME280;37650;52.790;18.268;2023-05-11T04:41:18;100960.17;;;8.68;60.60
40171;BME280;37650;52.790;18.268;2023-05-11T04:44:39;100955.81;;;8.77;60.42
40171;BME280;37650;52.790;18.268;2023-05-11T04:48:01;100959.04;;;8.90;60.22
40171;BME280;37650;52.790;18.268;2023-05-11T04:51:23;100959.36;;;9.00;60.02
40171;BME280;37650;52.790;18.268;2023-05-11T04:54:44;100962.27;;;9.10;59.82
40171;BME280;37650;52.790;18.268;2023-05-11T04:58:06;100962.68;;;9.23;59.58
40171;BME280;37650;52.790;18.268;2023-05-11T05:01:28;100963.83;;;9.42;59.24
40171;BME280;37650;52.790;18.268;2023-05-11T05:04:49;100968.48;;;9.60;58.97
40171;BME280;37650;52.790;18.268;2023-05-11T05:08:10;100962.98;;;9.77;58.55
40171;BME280;37650;52.790;18.268;2023-05-11T05:11:32;100969.02;;;9.96;58.28
40171;BME280;37650;52.790;18.268;2023-05-11T05:14:54;100969.54;;;10.17;57.74
40171;BME280;37650;52.790;18.268;2023-05-11T05:18:16;100975.46;;;10.32;56.81
40171;BME280;37650;52.790;18.268;2023-05-11T05:21:39;100975.15;;;10.50;56.17
40171;BME280;37650;52.790;18.268;2023-05-11T05:25:01;100976.33;;;10.65;55.30
40171;BME280;37650;52.790;18.268;2023-05-11T05:28:22;100971.25;;;10.77;54.85
40171;BME280;37650;52.790;18.268;2023-05-11T05:31:44;100971.55;;;10.97;55.01
40171;BME280;37650;52.790;18.268;2023-05-11T05:35:07;100973.66;;;11.20;54.69
40171;BME280;37650;52.790;18.268;2023-05-11T05:38:28;100976.19;;;11.35;53.92
40171;BME280;37650;52.790;18.268;2023-05-11T05:41:51;100968.91;;;11.55;53.66
40171;BME280;37650;52.790;18.268;2023-05-11T05:45:13;100972.50;;;11.74;52.64
40171;BME280;37650;52.790;18.268;2023-05-11T05:48:35;100973.91;;;11.91;52.66
40171;BME280;37650;52.790;18.268;2023-05-11T05:51:57;100975.10;;;12.12;52.08
40171;BME280;37650;52.790;18.268;2023-05-11T05:55:19;100976.08;;;12.30;51.76
40171;BME280;37650;52.790;18.268;2023-05-11T05:58:43;100976.71;;;12.52;51.24
40171;BME280;37650;52.790;18.268;2023-05-11T06:02:05;100981.21;;;12.69;50.77
40171;BME280;37650;52.790;18.268;2023-05-11T06:05:26;100981.73;;;12.83;49.93
40171;BME280;37650;52.790;18.268;2023-05-11T06:08:47;100980.77;;;13.09;50.41
40171;BME280;37650;52.790;18.268;2023-05-11T06:12:09;100984.60;;;13.30;49.08
40171;BME280;37650;52.790;18.268;2023-05-11T06:15:33;100985.83;;;13.48;48.99
40171;BME280;37650;52.790;18.268;2023-05-11T06:19:01;100989.25;;;13.72;48.31
40171;BME280;37650;52.790;18.268;2023-05-11T06:22:23;100988.66;;;13.86;48.13
40171;BME280;37650;52.790;18.268;2023-05-11T06:25:44;100991.08;;;14.18;48.33
40171;BME280;37650;52.790;18.268;2023-05-11T06:29:06;100993.70;;;14.39;47.31
40171;BME280;37650;52.790;18.268;2023-05-11T06:32:28;100998.64;;;14.60;47.04
40171;BME280;37650;52.790;18.268;2023-05-11T06:35:49;100997.60;;;14.75;46.53
40171;BME280;37650;52.790;18.268;2023-05-11T06:39:10;100995.41;;;14.92;46.38
40171;BME280;37650;52.790;18.268;2023-05-11T06:42:32;100993.48;;;15.15;45.89
40171;BME280;37650;52.790;18.268;2023-05-11T06:46:01;100991.66;;;15.28;45.25
40171;BME280;37650;52.790;18.268;2023-05-11T06:49:23;100990.53;;;15.40;44.86
40171;BME280;37650;52.790;18.268;2023-05-11T06:52:44;100986.09;;;15.56;44.60
40171;BME280;37650;52.790;18.268;2023-05-11T06:56:05;100988.17;;;15.82;44.77
40171;BME280;37650;52.790;18.268;2023-05-11T06:59:28;100991.20;;;16.10;44.04
40171;BME280;37650;52.790;18.268;2023-05-11T07:02:49;100994.35;;;16.28;43.70
40171;BME280;37650;52.790;18.268;2023-05-11T07:06:11;100996.30;;;16.45;42.85
40171;BME280;37650;52.790;18.268;2023-05-11T07:09:32;100989.86;;;16.40;42.34
40171;BME280;37650;52.790;18.268;2023-05-11T07:12:53;100984.27;;;16.55;41.07
40171;BME280;37650;52.790;18.268;2023-05-11T07:16:14;100985.03;;;16.58;41.59
40171;BME280;37650;52.790;18.268;2023-05-11T07:19:36;100983.78;;;16.88;41.35
40171;BME280;37650;52.790;18.268;2023-05-11T07:22:57;100985.36;;;17.08;40.27
40171;BME280;37650;52.790;18.268;2023-05-11T07:26:19;100984.84;;;17.24;39.81
40171;BME280;37650;52.790;18.268;2023-05-11T07:29:41;100986.09;;;17.43;39.49
40171;BME280;37650;52.790;18.268;2023-05-11T07:33:03;100989.02;;;17.45;37.94
40171;BME280;37650;52.790;18.268;2023-05-11T07:36:24;100988.08;;;17.62;38.40
40171;BME280;37650;52.790;18.268;2023-05-11T07:39:45;100992.55;;;17.77;37.41
40171;BME280;37650;52.790;18.268;2023-05-11T07:43:06;100996.98;;;17.77;37.56
40171;BME280;37650;52.790;18.268;2023-05-11T07:46:26;100991.58;;;17.87;37.13
40171;BME280;37650;52.790;18.268;2023-05-11T07:49:47;100989.02;;;18.10;35.08
40171;BME280;37650;52.790;18.268;2023-05-11T07:53:10;100991.52;;;18.06;35.58
40171;BME280;37650;52.790;18.268;2023-05-11T07:56:30;100989.50;;;18.23;35.84
40171;BME280;37650;52.790;18.268;2023-05-11T07:59:51;100988.98;;;18.34;35.07
40171;BME280;37650;52.790;18.268;2023-05-11T08:03:12;100995.54;;;18.62;35.03
40171;BME280;37650;52.790;18.268;2023-05-11T08:06:34;100991.07;;;18.79;34.48
40171;BME280;37650;52.790;18.268;2023-05-11T08:09:55;100987.79;;;18.95;34.02
40171;BME280;37650;52.790;18.268;2023-05-11T08:13:17;100988.86;;;19.15;33.78
40171;BME280;37650;52.790;18.268;2023-05-11T08:16:39;100992.23;;;19.18;31.81
40171;BME280;37650;52.790;18.268;2023-05-11T08:20:02;100988.92;;;18.97;31.42
40171;BME280;37650;52.790;18.268;2023-05-11T08:23:23;100990.06;;;19.18;32.47
40171;BME280;37650;52.790;18.268;2023-05-11T08:26:45;100985.65;;;19.43;32.82
40171;BME280;37650;52.790;18.268;2023-05-11T08:30:07;100982.20;;;19.55;31.19
40171;BME280;37650;52.790;18.268;2023-05-11T08:33:29;100981.10;;;19.61;31.31
40171;BME280;37650;52.790;18.268;2023-05-11T08:36:51;100989.09;;;19.78;30.94
40171;BME280;37650;52.790;18.268;2023-05-11T08:40:16;100989.41;;;19.81;30.03
40171;BME280;37650;52.790;18.268;2023-05-11T08:43:39;100993.09;;;19.79;29.51
40171;BME280;37650;52.790;18.268;2023-05-11T08:47:00;100993.11;;;19.78;29.26
40171;BME280;37650;52.790;18.268;2023-05-11T08:50:22;100987.75;;;19.90;29.31
40171;BME280;37650;52.790;18.268;2023-05-11T08:53:44;100993.12;;;19.92;29.12
40171;BME280;37650;52.790;18.268;2023-05-11T08:57:05;100999.42;;;19.96;28.70
40171;BME280;37650;52.790;18.268;2023-05-11T09:00:28;100994.58;;;20.10;28.44
40171;BME280;37650;52.790;18.268;2023-05-11T09:03:50;100992.70;;;20.09;28.78
40171;BME280;37650;52.790;18.268;2023-05-11T09:07:14;100995.59;;;20.24;27.84
40171;BME280;37650;52.790;18.268;2023-05-11T09:10:37;100991.25;;;20.30;28.03
40171;BME280;37650;52.790;18.268;2023-05-11T09:13:58;100985.06;;;20.27;27.40
40171;BME280;37650;52.790;18.268;2023-05-11T09:17:20;100982.98;;;20.13;27.08
40171;BME280;37650;52.790;18.268;2023-05-11T09:20:45;100989.33;;;20.30;27.38
40171;BME280;37650;52.790;18.268;2023-05-11T09:24:10;100992.73;;;20.45;26.89
40171;BME280;37650;52.790;18.268;2023-05-11T09:27:33;100987.52;;;20.70;26.60
40171;BME280;37650;52.790;18.268;2023-05-11T09:30:54;100986.45;;;20.72;26.43
40171;BME280;37650;52.790;18.268;2023-05-11T09:34:21;100978.35;;;20.88;26.42
40171;BME280;37650;52.790;18.268;2023-05-11T09:38:04;100975.79;;;20.79;25.96
40171;BME280;37650;52.790;18.268;2023-05-11T09:41:26;100975.85;;;21.11;27.20
40171;BME280;37650;52.790;18.268;2023-05-11T09:44:48;100972.17;;;21.49;26.44
40171;BME280;37650;52.790;18.268;2023-05-11T09:51:38;100969.72;;;21.31;26.14
40171;BME280;37650;52.790;18.268;2023-05-11T09:55:09;100972.73;;;21.29;26.01
40171;BME280;37650;52.790;18.268;2023-05-11T09:58:45;100962.57;;;21.44;26.09
40171;BME280;37650;52.790;18.268;2023-05-11T10:02:29;100974.20;;;21.75;25.75
40171;BME280;37650;52.790;18.268;2023-05-11T10:05:55;100969.52;;;22.02;25.24
40171;BME280;37650;52.790;18.268;2023-05-11T10:09:21;100962.36;;;22.02;24.65
40171;BME280;37650;52.790;18.268;2023-05-11T10:12:44;100962.88;;;22.00;24.11
40171;BME280;37650;52.790;18.268;2023-05-11T10:16:06;100966.91;;;21.98;24.37
40171;BME280;37650;52.790;18.268;2023-05-11T10:19:40;100964.99;;;21.98;23.75
40171;BME280;37650;52.790;18.268;2023-05-11T10:23:02;100961.26;;;21.93;23.27
40171;BME280;37650;52.790;18.268;2023-05-11T10:26:24;100959.31;;;21.87;23.76
40171;BME280;37650;52.790;18.268;2023-05-11T10:29:47;100957.00;;;21.95;23.48
40171;BME280;37650;52.790;18.268;2023-05-11T10:33:10;100955.36;;;22.04;24.05
40171;BME280;37650;52.790;18.268;2023-05-11T10:36:32;100958.19;;;22.38;23.97
40171;BME280;37650;52.790;18.268;2023-05-11T10:39:56;100954.61;;;22.26;23.51
40171;BME280;37650;52.790;18.268;2023-05-11T10:47:27;100949.91;;;22.54;23.97
40171;BME280;37650;52.790;18.268;2023-05-11T10:58:16;100938.40;;;22.80;23.05
40171;BME280;37650;52.790;18.268;2023-05-11T11:01:41;100945.64;;;22.65;23.49
40171;BME280;37650;52.790;18.268;2023-05-11T11:05:03;100932.17;;;22.91;23.84
40171;BME280;37650;52.790;18.268;2023-05-11T11:09:15;100931.52;;;22.95;23.45
40171;BME280;37650;52.790;18.268;2023-05-11T11:12:39;100928.83;;;23.01;23.24
40171;BME280;37650;52.790;18.268;2023-05-11T11:16:09;100930.26;;;23.08;23.90
40171;BME280;37650;52.790;18.268;2023-05-11T11:22:51;100931.88;;;23.19;23.71
40171;BME280;37650;52.790;18.268;2023-05-11T11:26:13;100931.17;;;23.23;23.61
40171;BME280;37650;52.790;18.268;2023-05-11T11:29:35;100936.36;;;22.86;23.02
40171;BME280;37650;52.790;18.268;2023-05-11T11:36:59;100931.25;;;22.71;23.93
40171;BME280;37650;52.790;18.268;2023-05-11T11:40:43;100934.81;;;22.92;24.01
40171;BME280;37650;52.790;18.268;2023-05-11T11:44:19;100930.83;;;23.23;23.81
40171;BME280;37650;52.790;18.268;2023-05-11T11:48:04;100937.40;;;23.37;23.67
40171;BME280;37650;52.790;18.268;2023-05-11T11:51:32;100932.80;;;23.32;23.14
40171;BME280;37650;52.790;18.268;2023-05-11T11:54:55;100928.13;;;23.26;23.28
40171;BME280;37650;52.790;18.268;2023-05-11T12:02:06;100932.39;;;23.11;23.90
40171;BME280;37650;52.790;18.268;2023-05-11T12:05:27;100928.91;;;23.36;24.08
40171;BME280;37650;52.790;18.268;2023-05-11T12:08:49;100930.27;;;23.24;23.65
40171;BME280;37650;52.790;18.268;2023-05-11T12:12:10;100927.20;;;23.35;24.23
40171;BME280;37650;52.790;18.268;2023-05-11T12:15:31;100929.40;;;23.56;24.45
40171;BME280;37650;52.790;18.268;2023-05-11T12:18:54;100924.06;;;23.60;23.36
40171;BME280;37650;52.790;18.268;2023-05-11T12:22:24;100917.92;;;23.45;23.34
40171;BME280;37650;52.790;18.268;2023-05-11T12:25:59;100915.48;;;23.44;23.09
40171;BME280;37650;52.790;18.268;2023-05-11T12:29:20;100913.38;;;23.48;22.97
40171;BME280;37650;52.790;18.268;2023-05-11T12:32:41;100918.42;;;23.42;22.61
40171;BME280;37650;52.790;18.268;2023-05-11T12:36:03;100914.46;;;23.18;22.90
40171;BME280;37650;52.790;18.268;2023-05-11T12:39:26;100910.07;;;23.19;22.99
40171;BME280;37650;52.790;18.268;2023-05-11T12:42:58;100909.48;;;23.24;23.32
40171;BME280;37650;52.790;18.268;2023-05-11T12:46:20;100912.05;;;23.43;22.72
40171;BME280;37650;52.790;18.268;2023-05-11T12:49:42;100904.15;;;23.38;22.47
40171;BME280;37650;52.790;18.268;2023-05-11T12:53:15;100902.91;;;23.26;22.87
40171;BME280;37650;52.790;18.268;2023-05-11T12:56:46;100901.33;;;23.29;22.96
40171;BME280;37650;52.790;18.268;2023-05-11T13:00:10;100890.88;;;23.19;23.22
40171;BME280;37650;52.790;18.268;2023-05-11T13:03:32;100896.06;;;23.20;22.97
40171;BME280;37650;52.790;18.268;2023-05-11T13:06:55;100892.48;;;23.04;23.10
40171;BME280;37650;52.790;18.268;2023-05-11T13:10:23;100890.95;;;22.96;23.50
40171;BME280;37650;52.790;18.268;2023-05-11T13:13:47;100892.47;;;23.09;23.40
40171;BME280;37650;52.790;18.268;2023-05-11T13:17:08;100889.08;;;23.20;23.54
40171;BME280;37650;52.790;18.268;2023-05-11T13:20:32;100888.84;;;23.25;23.54
40171;BME280;37650;52.790;18.268;2023-05-11T13:23:53;100883.30;;;23.31;23.31
40171;BME280;37650;52.790;18.268;2023-05-11T13:27:14;100880.64;;;23.35;23.38
40171;BME280;37650;52.790;18.268;2023-05-11T13:30:36;100879.39;;;23.33;23.07
40171;BME280;37650;52.790;18.268;2023-05-11T13:33:57;100870.17;;;23.12;22.89
40171;BME280;37650;52.790;18.268;2023-05-11T13:37:20;100862.95;;;23.02;23.78
40171;BME280;37650;52.790;18.268;2023-05-11T13:40:46;100871.30;;;23.20;23.41
40171;BME280;37650;52.790;18.268;2023-05-11T13:44:08;100869.60;;;23.22;23.55
40171;BME280;37650;52.790;18.268;2023-05-11T13:47:29;100869.20;;;23.02;23.12
40171;BME280;37650;52.790;18.268;2023-05-11T13:50:50;100867.39;;;23.04;23.69
40171;BME280;37650;52.790;18.268;2023-05-11T13:54:12;100866.65;;;23.03;23.49
40171;BME280;37650;52.790;18.268;2023-05-11T13:57:33;100860.09;;;22.91;23.84
40171;BME280;37650;52.790;18.268;2023-05-11T14:00:54;100865.38;;;23.21;23.69
40171;BME280;37650;52.790;18.268;2023-05-11T14:04:16;100867.00;;;23.35;24.10
40171;BME280;37650;52.790;18.268;2023-05-11T14:07:37;100864.18;;;23.24;23.44
40171;BME280;37650;52.790;18.268;2023-05-11T14:10:58;100860.80;;;23.18;23.60
40171;BME280;37650;52.790;18.268;2023-05-11T14:14:19;100861.98;;;23.16;23.52
40171;BME280;37650;52.790;18.268;2023-05-11T14:17:41;100861.37;;;23.09;23.46
40171;BME280;37650;52.790;18.268;2023-05-11T14:21:02;100857.58;;;22.82;23.47
40171;BME280;37650;52.790;18.268;2023-05-11T14:24:23;100854.98;;;22.79;23.82
40171;BME280;37650;52.790;18.268;2023-05-11T14:27:45;100849.95;;;22.91;24.15
40171;BME280;37650;52.790;18.268;2023-05-11T14:31:06;100850.77;;;23.58;23.90
40171;BME280;37650;52.790;18.268;2023-05-11T14:34:27;100851.48;;;23.84;22.95
40171;BME280;37650;52.790;18.268;2023-05-11T14:37:48;100849.00;;;24.74;22.53
40171;BME280;37650;52.790;18.268;2023-05-11T14:41:10;100841.48;;;25.04;21.74
40171;BME280;37650;52.790;18.268;2023-05-11T14:44:32;100841.20;;;24.75;22.29
40171;BME280;37650;52.790;18.268;2023-05-11T14:47:54;100834.99;;;25.06;22.49
40171;BME280;37650;52.790;18.268;2023-05-11T14:51:16;100839.17;;;24.75;22.29
40171;BME280;37650;52.790;18.268;2023-05-11T14:54:38;100845.98;;;23.96;22.99
40171;BME280;37650;52.790;18.268;2023-05-11T14:57:59;100848.88;;;23.55;23.28
40171;BME280;37650;52.790;18.268;2023-05-11T15:01:23;100844.59;;;23.10;23.73
40171;BME280;37650;52.790;18.268;2023-05-11T15:04:45;100850.84;;;22.64;23.27
40171;BME280;37650;52.790;18.268;2023-05-11T15:08:06;100855.73;;;22.15;23.90
40171;BME280;37650;52.790;18.268;2023-05-11T15:11:27;100852.96;;;21.75;24.47
40171;BME280;37650;52.790;18.268;2023-05-11T15:14:49;100853.37;;;21.53;24.79
40171;BME280;37650;52.790;18.268;2023-05-11T15:18:10;100852.50;;;21.55;24.92
40171;BME280;37650;52.790;18.268;2023-05-11T15:21:33;100848.57;;;21.43;24.56
40171;BME280;37650;52.790;18.268;2023-05-11T15:24:55;100849.98;;;21.41;25.05
40171;BME280;37650;52.790;18.268;2023-05-11T15:28:16;100849.60;;;21.46;24.98
40171;BME280;37650;52.790;18.268;2023-05-11T15:31:37;100847.88;;;21.33;25.17
40171;BME280;37650;52.790;18.268;2023-05-11T15:34:58;100845.78;;;21.26;25.26
40171;BME280;37650;52.790;18.268;2023-05-11T15:38:19;100848.87;;;21.15;25.46
40171;BME280;37650;52.790;18.268;2023-05-11T15:41:42;100849.88;;;21.11;25.54
40171;BME280;37650;52.790;18.268;2023-05-11T15:45:04;100853.10;;;20.99;25.90
40171;BME280;37650;52.790;18.268;2023-05-11T15:48:25;100853.70;;;20.95;25.83
40171;BME280;37650;52.790;18.268;2023-05-11T15:51:47;100856.26;;;20.78;25.94
40171;BME280;37650;52.790;18.268;2023-05-11T15:55:08;100858.15;;;20.64;25.85
40171;BME280;37650;52.790;18.268;2023-05-11T15:58:29;100862.16;;;20.52;26.17
40171;BME280;37650;52.790;18.268;2023-05-11T16:01:51;100862.77;;;20.39;26.78
40171;BME280;37650;52.790;18.268;2023-05-11T16:05:13;100863.83;;;20.41;26.85
40171;BME280;37650;52.790;18.268;2023-05-11T16:08:34;100863.36;;;20.33;26.85
40171;BME280;37650;52.790;18.268;2023-05-11T16:11:56;100867.39;;;20.23;27.13
40171;BME280;37650;52.790;18.268;2023-05-11T16:15:17;100863.73;;;20.14;27.01
40171;BME280;37650;52.790;18.268;2023-05-11T16:18:39;100862.52;;;20.06;27.57
40171;BME280;37650;52.790;18.268;2023-05-11T16:22:00;100855.81;;;20.05;27.60
40171;BME280;37650;52.790;18.268;2023-05-11T16:25:21;100863.42;;;19.96;27.87
40171;BME280;37650;52.790;18.268;2023-05-11T16:28:44;100859.50;;;19.86;28.31
40171;BME280;37650;52.790;18.268;2023-05-11T16:32:05;100860.36;;;19.78;28.41
40171;BME280;37650;52.790;18.268;2023-05-11T16:35:26;100856.90;;;19.69;28.42
40171;BME280;37650;52.790;18.268;2023-05-11T16:38:48;100857.11;;;19.68;28.74
40171;BME280;37650;52.790;18.268;2023-05-11T16:42:09;100856.95;;;19.65;28.80
40171;BME280;37650;52.790;18.268;2023-05-11T16:45:30;100854.73;;;19.61;28.98
40171;BME280;37650;52.790;18.268;2023-05-11T16:48:52;100855.22;;;19.51;29.20
40171;BME280;37650;52.790;18.268;2023-05-11T16:52:13;100854.41;;;19.39;29.61
40171;BME280;37650;52.790;18.268;2023-05-11T16:55:37;100854.21;;;19.29;29.89
40171;BME280;37650;52.790;18.268;2023-05-11T16:58:59;100855.66;;;19.18;30.13
40171;BME280;37650;52.790;18.268;2023-05-11T17:02:20;100854.72;;;19.13;30.03
40171;BME280;37650;52.790;18.268;2023-05-11T17:05:45;100855.99;;;19.04;30.21
40171;BME280;37650;52.790;18.268;2023-05-11T17:09:06;100858.48;;;18.96;30.40
40171;BME280;37650;52.790;18.268;2023-05-11T17:12:28;100859.08;;;18.89;30.57
40171;BME280;37650;52.790;18.268;2023-05-11T17:15:50;100856.42;;;18.81;30.63
40171;BME280;37650;52.790;18.268;2023-05-11T17:19:15;100861.78;;;18.70;30.59
40171;BME280;37650;52.790;18.268;2023-05-11T17:22:37;100861.90;;;18.59;30.68
40171;BME280;37650;52.790;18.268;2023-05-11T17:25:58;100867.34;;;18.48;31.06
40171;BME280;37650;52.790;18.268;2023-05-11T17:29:19;100866.44;;;18.37;31.30
40171;BME280;37650;52.790;18.268;2023-05-11T17:32:41;100865.64;;;18.30;31.59
40171;BME280;37650;52.790;18.268;2023-05-11T17:36:03;100872.15;;;18.19;31.96
40171;BME280;37650;52.790;18.268;2023-05-11T17:39:24;100873.16;;;18.09;32.31
40171;BME280;37650;52.790;18.268;2023-05-11T17:42:45;100879.77;;;18.02;32.85
40171;BME280;37650;52.790;18.268;2023-05-11T17:46:07;100883.36;;;17.92;33.05
40171;BME280;37650;52.790;18.268;2023-05-11T17:49:28;100881.11;;;17.77;33.09
40171;BME280;37650;52.790;18.268;2023-05-11T17:52:49;100880.56;;;17.65;33.14
40171;BME280;37650;52.790;18.268;2023-05-11T17:56:11;100882.64;;;17.53;33.24
40171;BME280;37650;52.790;18.268;2023-05-11T17:59:33;100887.79;;;17.41;33.35
40171;BME280;37650;52.790;18.268;2023-05-11T18:02:54;100887.99;;;17.28;33.50
40171;BME280;37650;52.790;18.268;2023-05-11T18:06:16;100893.09;;;17.13;33.61
40171;BME280;37650;52.790;18.268;2023-05-11T18:09:37;100896.98;;;17.01;33.72